Kents Hill, Maine
Current Conditions -  °F | °C
As of 11:53 PM on Monday 26 Jan 2015 (Local Time) from KAUG Reporting Station
Overcast Overcast  
Wind Chill: -6°   Ceiling: 7000
Heat Index: 11°   Visibility: 10mi
Dew Point: -6°   Wind: 16mph
Humidity: 47%   Direction: 20°NNE
Pressure: 30.08"   Gusts: 26mph
Location:  44.4°N, 70°W
Report Text: KAUG 270453Z AUTO 02014G23KT 10SM OVC070 M12/M21 A3008 RMK AO2 SLP194 T11171211 411001178
Loading
Personal Weather Stations






























Interactive Weather Map New forecast layout! Learn more

10-Day Weather Forecast

Advertisements
Track Severe Weather on mobile